createdAt,value
2023-03-03T00:00:23.657Z,62.43
2023-03-03T00:02:50.435Z,62.68
2023-03-03T00:05:18.494Z,62.55
2023-03-03T00:07:45.956Z,62.50
2023-03-03T00:10:13.925Z,62.59
2023-03-03T00:12:46.782Z,63.38
2023-03-03T00:15:15.911Z,63.40
2023-03-03T00:17:43.079Z,63.17
2023-03-03T00:20:25.731Z,63.49
2023-03-03T00:22:52.520Z,64.13
2023-03-03T00:25:19.049Z,64.76
2023-03-03T00:27:46.176Z,63.79
2023-03-03T00:30:39.307Z,65.45
2023-03-03T00:33:15.910Z,66.09
2023-03-03T00:35:43.594Z,66.55
2023-03-03T00:38:20.232Z,65.48
2023-03-03T00:40:47.804Z,64.93
2023-03-03T00:43:24.653Z,63.93
2023-03-03T00:45:55.708Z,63.50
2023-03-03T00:48:28.743Z,63.04
2023-03-03T00:50:59.578Z,62.89
2023-03-03T00:53:28.661Z,62.79
2023-03-03T00:55:57.038Z,62.99
2023-03-03T00:58:24.204Z,63.61
2023-03-03T01:00:52.356Z,63.95
2023-03-03T01:03:21.822Z,63.71
2023-03-03T01:05:50.465Z,63.66
2023-03-03T01:08:17.192Z,63.63
2023-03-03T01:10:50.971Z,65.00
2023-03-03T01:13:18.913Z,64.85
2023-03-03T01:15:47.065Z,68.40
2023-03-03T01:18:14.533Z,69.62
2023-03-03T01:20:42.282Z,67.60
2023-03-03T01:23:09.530Z,67.49
2023-03-03T01:25:37.125Z,66.58
2023-03-03T01:28:04.082Z,65.91
2023-03-03T01:30:31.737Z,66.02
2023-03-03T01:32:59.123Z,64.90
2023-03-03T01:35:26.020Z,65.03
2023-03-03T01:37:52.980Z,64.58
2023-03-03T01:40:24.021Z,64.93
2023-03-03T01:42:52.714Z,67.37
2023-03-03T01:45:22.615Z,69.26
2023-03-03T01:47:53.081Z,71.16
2023-03-03T01:50:29.146Z,70.54
2023-03-03T01:52:56.118Z,70.01
2023-03-03T01:55:25.721Z,67.66
2023-03-03T01:58:02.331Z,66.46
2023-03-03T02:00:29.691Z,66.65
2023-03-03T02:02:57.460Z,69.63
2023-03-03T02:05:25.303Z,68.69
2023-03-03T02:07:52.656Z,72.53
2023-03-03T02:10:20.830Z,70.03
2023-03-03T02:12:53.123Z,67.17
2023-03-03T02:15:20.804Z,66.43
2023-03-03T02:17:48.948Z,67.79
2023-03-03T02:20:15.690Z,67.80
2023-03-03T02:22:48.406Z,69.33
2023-03-03T02:25:20.047Z,67.13
2023-03-03T02:27:46.657Z,71.13
2023-03-03T02:30:19.243Z,69.93
2023-03-03T02:32:46.032Z,72.02
2023-03-03T02:35:42.737Z,76.39
2023-03-03T02:38:15.046Z,73.75
2023-03-03T02:40:45.712Z,69.58
2023-03-03T02:43:12.521Z,72.63
2023-03-03T02:45:43.372Z,72.15
2023-03-03T02:48:10.575Z,70.99
2023-03-03T02:50:38.292Z,69.90
2023-03-03T02:53:05.279Z,69.95
2023-03-03T02:55:32.661Z,71.59
2023-03-03T02:58:00.385Z,69.13
2023-03-03T03:00:27.121Z,67.88
2023-03-03T03:02:55.071Z,65.96
2023-03-03T03:05:22.284Z,65.46
2023-03-03T03:07:50.556Z,65.52
2023-03-03T03:10:17.622Z,65.02
2023-03-03T03:12:44.731Z,67.15
2023-03-03T03:15:12.012Z,68.16
2023-03-03T03:17:39.745Z,71.35
2023-03-03T03:20:07.545Z,68.40
2023-03-03T03:22:34.656Z,67.35
2023-03-03T03:25:01.428Z,71.52
2023-03-03T03:27:28.211Z,69.40
2023-03-03T03:29:54.720Z,68.83
2023-03-03T03:32:21.646Z,69.03
2023-03-03T03:34:48.768Z,67.45
2023-03-03T03:37:16.022Z,67.28
2023-03-03T03:39:43.170Z,69.18
2023-03-03T03:42:10.201Z,69.38
2023-03-03T03:44:36.792Z,74.92
2023-03-03T03:47:04.596Z,71.69
2023-03-03T03:49:31.481Z,70.96
2023-03-03T03:51:59.063Z,72.43
2023-03-03T03:54:26.133Z,73.18
2023-03-03T03:56:54.513Z,70.34
2023-03-03T03:59:21.767Z,69.31
2023-03-03T04:01:50.018Z,70.60
2023-03-03T04:04:18.071Z,70.97
2023-03-03T04:06:45.054Z,72.28
2023-03-03T04:09:12.142Z,72.13
2023-03-03T04:11:39.094Z,69.36
2023-03-03T04:14:06.037Z,67.57
2023-03-03T04:16:34.311Z,67.33
2023-03-03T04:19:01.043Z,66.22
2023-03-03T04:21:28.201Z,66.28
2023-03-03T04:23:54.948Z,67.46
2023-03-03T04:26:21.741Z,68.77
2023-03-03T04:28:48.747Z,67.72
2023-03-03T04:31:15.620Z,71.79
2023-03-03T04:33:42.504Z,69.31
2023-03-03T04:36:09.382Z,67.00
2023-03-03T04:38:36.409Z,66.50
2023-03-03T04:41:04.069Z,68.28
2023-03-03T04:43:30.987Z,67.36
2023-03-03T04:45:59.275Z,66.64
2023-03-03T04:48:26.110Z,66.94
2023-03-03T04:50:53.014Z,67.19
2023-03-03T04:53:19.744Z,66.85
2023-03-03T04:55:46.698Z,65.34
2023-03-03T04:58:13.800Z,68.75
2023-03-03T05:00:40.591Z,69.67
2023-03-03T05:03:08.080Z,72.72
2023-03-03T05:05:35.005Z,69.10
2023-03-03T05:08:02.230Z,70.36
2023-03-03T05:10:29.641Z,68.97
2023-03-03T05:12:56.295Z,66.73
2023-03-03T05:15:23.218Z,65.98
2023-03-03T05:17:49.777Z,65.00
2023-03-03T05:20:16.943Z,64.56
2023-03-03T05:22:44.749Z,65.35
2023-03-03T05:25:12.581Z,65.12
2023-03-03T05:27:39.672Z,64.98
2023-03-03T05:30:07.348Z,65.42
2023-03-03T05:32:34.985Z,64.86
2023-03-03T05:35:01.901Z,64.57
2023-03-03T05:37:29.554Z,66.32
2023-03-03T05:39:57.445Z,69.02
2023-03-03T05:42:24.061Z,72.24
2023-03-03T05:44:50.905Z,69.82
2023-03-03T05:47:18.244Z,69.19
2023-03-03T05:49:47.468Z,69.95
2023-03-03T05:52:14.773Z,68.20
2023-03-03T05:54:41.492Z,67.04
2023-03-03T05:57:08.449Z,66.77
2023-03-03T05:59:34.923Z,66.13
2023-03-03T06:02:01.456Z,67.75
2023-03-03T06:04:28.024Z,67.62
2023-03-03T06:06:54.925Z,66.28
2023-03-03T06:09:21.504Z,65.44
2023-03-03T06:11:48.052Z,67.08
2023-03-03T06:14:15.295Z,67.19
2023-03-03T06:16:41.962Z,66.89
2023-03-03T06:19:08.766Z,65.71
2023-03-03T06:21:35.375Z,65.96
2023-03-03T06:24:01.997Z,66.19
2023-03-03T06:26:29.312Z,65.23
2023-03-03T06:28:55.960Z,69.87
2023-03-03T06:31:23.030Z,72.14
2023-03-03T06:33:49.984Z,73.85
2023-03-03T06:36:18.443Z,76.75
2023-03-03T06:38:46.080Z,75.48
2023-03-03T06:41:12.612Z,76.23
2023-03-03T06:43:39.404Z,74.00
2023-03-03T06:46:06.020Z,74.79
2023-03-03T06:48:33.082Z,72.66
2023-03-03T06:51:04.364Z,70.27
2023-03-03T06:53:32.869Z,71.38
2023-03-03T06:56:01.751Z,72.19
2023-03-03T06:58:29.477Z,70.53
2023-03-03T07:01:00.116Z,71.67
2023-03-03T07:03:31.628Z,70.09
2023-03-03T07:05:58.575Z,68.77
2023-03-03T07:08:26.307Z,70.91
2023-03-03T07:10:54.139Z,70.07
2023-03-03T07:13:22.333Z,70.50
2023-03-03T07:15:53.356Z,69.47
2023-03-03T07:18:25.862Z,69.97
2023-03-03T07:20:52.531Z,67.84
2023-03-03T07:23:21.483Z,66.94
2023-03-03T07:25:48.560Z,66.89
2023-03-03T07:28:21.129Z,66.91
2023-03-03T07:30:47.573Z,65.74
2023-03-03T07:33:23.310Z,67.04
2023-03-03T07:35:50.237Z,66.67
2023-03-03T07:38:19.901Z,67.43
2023-03-03T07:40:50.697Z,68.87
2023-03-03T07:43:23.538Z,67.89
2023-03-03T07:45:51.439Z,67.84
2023-03-03T07:48:25.352Z,68.68
2023-03-03T07:50:52.476Z,67.17
2023-03-03T07:53:26.940Z,72.98
2023-03-03T07:55:53.696Z,71.49
2023-03-03T07:58:39.623Z,73.57
2023-03-03T08:01:18.406Z,70.70
2023-03-03T08:03:49.552Z,74.32
2023-03-03T08:06:40.499Z,70.13
2023-03-03T08:09:11.045Z,68.70
2023-03-03T08:11:57.709Z,70.55
2023-03-03T08:14:32.035Z,69.21
2023-03-03T08:17:00.594Z,68.74
2023-03-03T08:19:31.302Z,67.34
2023-03-03T08:22:03.624Z,67.39
2023-03-03T08:24:30.080Z,67.18
2023-03-03T08:26:56.552Z,67.25
2023-03-03T08:29:23.618Z,66.08
2023-03-03T08:31:50.218Z,68.16
2023-03-03T08:34:16.789Z,68.09
2023-03-03T08:36:43.326Z,67.11
2023-03-03T08:39:10.564Z,67.95
2023-03-03T08:41:37.273Z,71.07
2023-03-03T08:44:03.842Z,71.10
2023-03-03T08:46:30.295Z,69.55
2023-03-03T08:48:57.066Z,69.07
2023-03-03T08:51:23.535Z,68.57
2023-03-03T08:53:49.899Z,67.71
2023-03-03T08:56:16.449Z,68.12
2023-03-03T08:59:01.242Z,66.65
2023-03-03T09:01:28.949Z,71.72
2023-03-03T09:03:56.005Z,68.93
2023-03-03T09:06:22.424Z,68.15
2023-03-03T09:08:49.523Z,67.88
2023-03-03T09:11:23.574Z,65.39
2023-03-03T09:13:53.472Z,64.86
2023-03-03T09:16:22.676Z,65.31
2023-03-03T09:18:50.360Z,63.52
2023-03-03T09:21:22.802Z,64.05
2023-03-03T09:23:57.048Z,64.14
2023-03-03T09:26:24.283Z,66.04
2023-03-03T09:28:50.810Z,66.57
2023-03-03T09:31:36.710Z,65.49
2023-03-03T09:34:11.040Z,63.93
2023-03-03T09:36:38.418Z,62.82
2023-03-03T09:39:16.345Z,62.28
2023-03-03T09:41:51.828Z,62.26
2023-03-03T09:44:18.135Z,62.86
2023-03-03T09:47:04.986Z,63.15
2023-03-03T09:49:36.034Z,63.64
2023-03-03T09:52:21.171Z,63.08
2023-03-03T09:55:16.867Z,63.22
2023-03-03T09:58:10.932Z,63.42
2023-03-03T10:00:37.873Z,64.24
2023-03-03T10:03:08.991Z,63.99
2023-03-03T10:05:43.010Z,66.12
2023-03-03T10:08:21.966Z,65.67
2023-03-03T10:10:48.975Z,65.84
2023-03-03T10:13:24.584Z,64.71
2023-03-03T10:15:51.521Z,64.82
2023-03-03T10:18:26.975Z,63.27
2023-03-03T10:20:54.245Z,64.62
2023-03-03T10:23:23.995Z,65.84
2023-03-03T10:25:59.965Z,65.29
2023-03-03T10:28:38.448Z,63.78
2023-03-03T10:31:11.757Z,65.54
2023-03-03T10:33:49.043Z,65.71
2023-03-03T10:36:20.383Z,64.99
2023-03-03T10:38:55.404Z,65.04
2023-03-03T10:41:32.587Z,65.04
2023-03-03T10:44:34.614Z,63.52
2023-03-03T10:47:12.077Z,63.11
2023-03-03T10:49:56.397Z,63.28
2023-03-03T10:52:26.076Z,62.64
2023-03-03T10:54:55.804Z,62.78
2023-03-03T10:57:22.844Z,64.42
2023-03-03T10:59:52.345Z,62.40
2023-03-03T11:02:23.097Z,60.84
2023-03-03T11:05:02.312Z,61.63
2023-03-03T11:07:35.438Z,63.63
2023-03-03T11:10:22.698Z,62.21
2023-03-03T11:13:11.136Z,65.99
2023-03-03T11:15:37.711Z,69.30
2023-03-03T11:18:25.762Z,65.71
2023-03-03T11:20:59.717Z,65.33
2023-03-03T11:23:26.194Z,63.75
2023-03-03T11:26:01.147Z,64.51
2023-03-03T11:28:31.066Z,66.10
2023-03-03T11:31:09.617Z,65.18
2023-03-03T11:33:36.120Z,69.84
2023-03-03T11:36:18.600Z,65.04
2023-03-03T11:38:45.065Z,67.53
2023-03-03T11:41:18.074Z,65.18
2023-03-03T11:43:50.340Z,63.04
2023-03-03T11:46:18.543Z,63.52
2023-03-03T11:48:48.118Z,67.49
2023-03-03T11:51:19.921Z,65.51
2023-03-03T11:54:05.942Z,63.06
2023-03-03T11:56:40.691Z,66.06
2023-03-03T11:59:10.133Z,63.77
2023-03-03T12:01:40.858Z,63.09
2023-03-03T12:04:33.734Z,61.76
2023-03-03T12:07:12.887Z,60.87
2023-03-03T12:09:44.799Z,60.89
2023-03-03T12:12:11.209Z,60.22
2023-03-03T12:15:01.980Z,59.76
2023-03-03T12:17:28.499Z,60.41
2023-03-03T12:20:17.326Z,61.49
2023-03-03T12:23:06.938Z,60.27
2023-03-03T12:25:37.389Z,60.17
2023-03-03T12:28:21.589Z,61.29
2023-03-03T12:31:06.204Z,59.63
2023-03-03T12:33:38.940Z,58.42
2023-03-03T12:36:14.340Z,58.58
2023-03-03T12:38:46.742Z,58.87
2023-03-03T12:41:36.383Z,57.75
2023-03-03T12:44:10.393Z,57.26
2023-03-03T12:46:43.027Z,57.10
2023-03-03T12:49:09.654Z,56.53
2023-03-03T12:51:48.382Z,57.98
2023-03-03T12:54:22.426Z,57.12
2023-03-03T12:56:52.134Z,56.33
2023-03-03T12:59:18.740Z,56.01
2023-03-03T13:01:57.499Z,55.91
2023-03-03T13:04:44.230Z,57.40
2023-03-03T13:07:10.624Z,58.00
2023-03-03T13:09:55.786Z,57.78
2023-03-03T13:12:31.470Z,57.61
2023-03-03T13:14:57.913Z,60.01
2023-03-03T13:17:29.131Z,56.70
2023-03-03T13:20:03.110Z,56.17
2023-03-03T13:22:37.274Z,57.54
2023-03-03T13:25:04.151Z,57.85
2023-03-03T13:27:40.604Z,59.59
2023-03-03T13:30:20.529Z,56.67
2023-03-03T13:32:55.052Z,56.04
2023-03-03T13:35:27.649Z,56.54
2023-03-03T13:37:55.174Z,57.12
2023-03-03T13:40:39.639Z,56.67
2023-03-03T13:43:29.610Z,57.09
2023-03-03T13:45:57.559Z,59.46
2023-03-03T13:48:23.896Z,58.35
2023-03-03T13:50:53.990Z,60.61
2023-03-03T13:53:35.524Z,61.74
2023-03-03T13:56:05.032Z,61.49
2023-03-03T13:58:54.709Z,60.32
2023-03-03T14:01:41.392Z,58.48
2023-03-03T14:04:19.570Z,59.33
2023-03-03T14:06:50.358Z,59.37
2023-03-03T14:09:38.085Z,59.32
2023-03-03T14:12:12.639Z,58.12
2023-03-03T14:14:39.333Z,56.67
2023-03-03T14:17:05.722Z,57.08
2023-03-03T14:19:55.459Z,54.87
2023-03-03T14:22:30.138Z,55.32
2023-03-03T14:25:05.344Z,54.38
2023-03-03T14:27:40.524Z,55.02
2023-03-03T14:30:22.804Z,55.92
2023-03-03T14:33:07.637Z,53.95
2023-03-03T14:35:38.622Z,54.97
2023-03-03T14:38:18.686Z,56.69
2023-03-03T14:40:46.453Z,56.35
2023-03-03T14:43:22.299Z,57.55
2023-03-03T14:45:49.083Z,57.80
2023-03-03T14:48:26.217Z,58.56
2023-03-03T14:51:11.573Z,54.78
2023-03-03T14:53:38.943Z,55.83
2023-03-03T14:56:25.224Z,58.92
2023-03-03T14:58:56.011Z,59.66
2023-03-03T15:01:22.605Z,56.79
2023-03-03T15:03:58.211Z,58.61
2023-03-03T15:06:33.446Z,56.35
2023-03-03T15:09:18.921Z,55.96
2023-03-03T15:11:45.413Z,55.46
2023-03-03T15:14:15.239Z,53.31
2023-03-03T15:16:45.017Z,54.09
2023-03-03T15:19:30.948Z,55.76
2023-03-03T15:22:26.616Z,57.43
2023-03-03T15:24:58.760Z,60.04
2023-03-03T15:27:44.564Z,59.62
2023-03-03T15:30:10.842Z,58.64
2023-03-03T15:32:40.552Z,58.42
2023-03-03T15:35:14.845Z,57.19
2023-03-03T15:37:47.323Z,58.05
2023-03-03T15:40:37.523Z,58.74
2023-03-03T15:43:22.648Z,61.93
2023-03-03T15:45:49.565Z,59.18
2023-03-03T15:48:36.361Z,57.82
2023-03-03T15:51:21.403Z,59.71
2023-03-03T15:54:15.052Z,56.39
2023-03-03T15:57:05.155Z,56.89
2023-03-03T15:59:34.868Z,59.57
2023-03-03T16:02:20.460Z,57.39
2023-03-03T16:05:03.223Z,58.20
2023-03-03T16:07:37.492Z,58.79
2023-03-03T16:10:05.260Z,60.84
2023-03-03T16:12:36.084Z,62.47
2023-03-03T16:15:09.337Z,63.88
2023-03-03T16:17:49.628Z,59.03
2023-03-03T16:20:16.655Z,59.80
2023-03-03T16:23:02.123Z,59.00
2023-03-03T16:25:34.362Z,63.14
2023-03-03T16:28:18.768Z,60.40
2023-03-03T16:30:54.840Z,63.35
2023-03-03T16:33:56.385Z,64.95
2023-03-03T16:36:42.797Z,60.50
2023-03-03T16:39:22.572Z,61.77
2023-03-03T16:41:50.068Z,62.42
2023-03-03T16:44:40.681Z,60.14
2023-03-03T16:47:29.662Z,58.77
2023-03-03T16:49:56.410Z,58.23
2023-03-03T16:52:26.474Z,60.42
2023-03-03T16:55:17.399Z,59.23
2023-03-03T16:57:53.121Z,59.30
2023-03-03T17:00:27.970Z,58.00
2023-03-03T17:03:03.860Z,57.25
2023-03-03T17:05:51.550Z,58.78
2023-03-03T17:08:19.331Z,60.05
2023-03-03T17:10:58.735Z,60.38
2023-03-03T17:13:35.780Z,61.05
2023-03-03T17:16:03.402Z,61.80
2023-03-03T17:18:45.064Z,59.52
2023-03-03T17:21:21.028Z,58.22
2023-03-03T17:23:54.451Z,58.22
2023-03-03T17:26:49.132Z,58.47
2023-03-03T17:29:35.437Z,59.50
2023-03-03T17:32:12.808Z,58.15
2023-03-03T17:34:51.835Z,58.61
2023-03-03T17:37:25.025Z,58.94
2023-03-03T17:40:10.021Z,59.30
2023-03-03T17:42:56.138Z,61.72
2023-03-03T17:45:24.129Z,60.01
2023-03-03T17:48:14.875Z,59.64
2023-03-03T17:50:44.949Z,60.99
2023-03-03T17:53:15.222Z,59.35
2023-03-03T17:56:02.622Z,61.61
2023-03-03T17:58:48.146Z,60.59
2023-03-03T18:01:29.612Z,59.80
2023-03-03T18:04:03.479Z,59.74
2023-03-03T18:06:30.136Z,60.00
2023-03-03T18:09:16.744Z,60.91
2023-03-03T18:11:46.434Z,59.45
2023-03-03T18:14:23.046Z,61.83
2023-03-03T18:17:08.753Z,61.16
2023-03-03T18:19:56.862Z,62.32
2023-03-03T18:22:32.396Z,64.29
2023-03-03T18:25:01.192Z,61.59
2023-03-03T18:27:30.044Z,61.05
2023-03-03T18:30:06.317Z,61.16
2023-03-03T18:32:44.749Z,59.51
2023-03-03T18:35:27.071Z,62.18
2023-03-03T18:37:54.944Z,61.35
2023-03-03T18:40:24.970Z,60.29
2023-03-03T18:42:54.371Z,61.82
2023-03-03T18:45:23.915Z,61.13
2023-03-03T18:48:07.222Z,61.57
2023-03-03T18:50:38.691Z,60.71
2023-03-03T18:53:10.828Z,62.98
2023-03-03T18:55:50.566Z,62.44
2023-03-03T18:58:17.381Z,62.38
2023-03-03T19:00:56.065Z,62.41
2023-03-03T19:03:25.981Z,64.77
2023-03-03T19:05:57.883Z,64.10
2023-03-03T19:08:27.173Z,63.54
2023-03-03T19:10:55.961Z,63.43
2023-03-03T19:13:35.232Z,63.86
2023-03-03T19:16:03.410Z,66.33
2023-03-03T19:18:43.576Z,66.33
2023-03-03T19:21:25.428Z,62.69
2023-03-03T19:23:59.898Z,64.62
2023-03-03T19:26:46.183Z,68.24
2023-03-03T19:29:19.655Z,65.91
2023-03-03T19:31:52.457Z,67.56
2023-03-03T19:34:27.852Z,66.17
2023-03-03T19:37:01.015Z,66.76
2023-03-03T19:39:39.299Z,65.52
2023-03-03T19:42:15.557Z,63.88
2023-03-03T19:45:01.538Z,62.93
2023-03-03T19:47:35.564Z,62.06
2023-03-03T19:50:09.584Z,61.88
2023-03-03T19:52:55.624Z,60.43
2023-03-03T19:55:31.058Z,62.25
2023-03-03T19:58:03.780Z,61.46
2023-03-03T20:00:35.249Z,62.10
2023-03-03T20:03:21.938Z,66.57
2023-03-03T20:05:56.904Z,66.77
2023-03-03T20:08:28.560Z,65.49
2023-03-03T20:11:01.141Z,66.52
2023-03-03T20:13:44.238Z,69.02
2023-03-03T20:16:21.837Z,69.61
2023-03-03T20:19:01.737Z,70.00
2023-03-03T20:21:31.579Z,70.24
2023-03-03T20:24:10.581Z,73.55
2023-03-03T20:26:58.283Z,71.20
2023-03-03T20:29:34.889Z,69.65
2023-03-03T20:32:01.639Z,67.88
2023-03-03T20:34:28.560Z,67.71
2023-03-03T20:37:17.920Z,66.92
2023-03-03T20:40:03.426Z,65.91
2023-03-03T20:42:30.105Z,67.83
2023-03-03T20:45:15.558Z,72.04
2023-03-03T20:47:48.422Z,69.64
2023-03-03T20:50:24.788Z,69.65
2023-03-03T20:53:00.377Z,70.08
2023-03-03T20:55:47.579Z,72.17
2023-03-03T20:58:33.161Z,73.82
2023-03-03T21:01:11.067Z,74.62
2023-03-03T21:03:41.222Z,71.15
2023-03-03T21:06:19.854Z,73.88
2023-03-03T21:08:56.568Z,72.34
2023-03-03T21:11:26.459Z,71.55
2023-03-03T21:13:54.588Z,73.15
2023-03-03T21:16:22.034Z,75.50
2023-03-03T21:19:04.549Z,76.71
2023-03-03T21:21:33.917Z,72.77
2023-03-03T21:24:22.228Z,73.63
2023-03-03T21:26:52.145Z,72.53
2023-03-03T21:29:35.305Z,73.93
2023-03-03T21:32:03.011Z,76.33
2023-03-03T21:34:39.576Z,76.57
2023-03-03T21:37:15.500Z,75.18
2023-03-03T21:40:10.188Z,75.58
2023-03-03T21:42:41.707Z,76.18
2023-03-03T21:45:12.742Z,78.10
2023-03-03T21:47:40.022Z,78.23
2023-03-03T21:50:14.463Z,79.98
2023-03-03T21:52:41.208Z,77.40
2023-03-03T21:55:09.540Z,79.71
2023-03-03T21:57:36.993Z,81.20
2023-03-03T22:00:16.318Z,78.63
2023-03-03T22:02:42.989Z,79.21
2023-03-03T22:05:10.613Z,79.38
2023-03-03T22:07:39.625Z,76.54
2023-03-03T22:10:08.240Z,77.16
2023-03-03T22:12:37.160Z,75.17
2023-03-03T22:15:04.785Z,77.25
2023-03-03T22:17:31.711Z,79.99
2023-03-03T22:20:06.658Z,77.07
2023-03-03T22:22:35.708Z,77.74
2023-03-03T22:25:03.345Z,80.91
2023-03-03T22:27:30.540Z,81.76
2023-03-03T22:29:57.603Z,80.30
2023-03-03T22:32:24.770Z,81.64
2023-03-03T22:34:52.172Z,82.47
2023-03-03T22:37:19.110Z,80.67
2023-03-03T22:39:46.617Z,83.91
2023-03-03T22:42:15.964Z,80.64
2023-03-03T22:44:45.751Z,79.20
2023-03-03T22:47:14.358Z,81.02
2023-03-03T22:49:41.719Z,82.16
2023-03-03T22:52:08.838Z,81.36
2023-03-03T22:54:35.810Z,81.45
2023-03-03T22:57:03.245Z,81.16
2023-03-03T22:59:30.614Z,82.35
2023-03-03T23:01:57.836Z,79.56
2023-03-03T23:04:24.823Z,80.38
2023-03-03T23:06:52.063Z,80.61
2023-03-03T23:09:19.043Z,82.63
2023-03-03T23:11:47.445Z,83.09
2023-03-03T23:14:14.261Z,78.60
2023-03-03T23:16:43.318Z,81.22
2023-03-03T23:19:10.589Z,78.49
2023-03-03T23:21:37.651Z,81.42
2023-03-03T23:24:11.521Z,75.84
2023-03-03T23:26:39.209Z,79.40
2023-03-03T23:29:06.293Z,77.56
2023-03-03T23:31:35.495Z,77.02
2023-03-03T23:34:03.437Z,78.25
2023-03-03T23:36:50.146Z,77.03
2023-03-03T23:39:17.502Z,76.40
2023-03-03T23:41:45.193Z,73.85
2023-03-03T23:44:14.510Z,80.43
2023-03-03T23:46:41.538Z,76.06
2023-03-03T23:49:09.171Z,76.05
2023-03-03T23:51:36.329Z,74.23
2023-03-03T23:54:23.104Z,78.63
2023-03-03T23:56:50.074Z,75.22
2023-03-03T23:59:18.509Z,76.04
